Time;durP1;ratioP1;P1;durP2;ratioP2;P2;SDS_P1;SDS_P2;PMS_P1;PMS_P2;Temp;Humidity;BMP_temperature;BMP_pressure;BME280_temperature;BME280_humidity;BME280_pressure;Samples;Min_cycle;Max_cycle;Signal;HPM_P1;HPM_P2
2024/02/16 00:00:18;;;;;;;;;;;;;;;21.23;26.33;98318.69;5006680;28;748;-78
2024/02/16 00:02:44;;;;;;;;;;;;;;;21.52;25.69;98312.47;5007237;28;1002;-79
2024/02/16 00:05:11;;;;;;;;;;;;;;;21.01;26.45;98318.31;4974820;28;810;-78
2024/02/16 00:07:37;;;;;;;;;;;;;;;20.77;26.79;98320.38;4992404;28;774;-79
2024/02/16 00:10:04;;;;;;;;;;;;;;;20.55;27.05;98307.84;5006767;28;795;-79
2024/02/16 00:12:30;;;;;;;;;;;;;;;20.89;26.74;98309.69;4992436;28;774;-79
2024/02/16 00:14:56;;;;;;;;;;;;;;;21.10;26.60;98308.47;4974584;28;1261;-79
2024/02/16 00:17:22;;;;;;;;;;;;;;;20.96;26.65;98307.50;5008393;28;909;-78
2024/02/16 00:19:47;;;;;;;;;;;;;;;20.94;26.54;98306.34;4990314;28;731;-79
2024/02/16 00:22:13;;;;;;;;;;;;;;;21.12;26.58;98303.97;4991005;28;1959;-78
2024/02/16 00:24:39;;;;;;;;;;;;;;;21.01;26.51;98306.19;4990542;28;1008;-79
2024/02/16 00:27:07;;;;;;;;;;;;;;;21.21;26.08;98303.38;4991489;28;784;-78
2024/02/16 00:29:33;;;;;;;;;;;;;;;20.61;26.88;98317.44;5005790;28;1241;-79
2024/02/16 00:32:02;;;;;;;;;;;;;;;20.16;27.64;98298.00;5007160;28;812;-79
2024/02/16 00:34:27;;;;;;;;;;;;;;;20.79;27.12;98294.50;5019769;28;1166;-78
2024/02/16 00:36:53;;;;;;;;;;;;;;;21.12;26.44;98301.13;5014839;28;878;-79
2024/02/16 00:39:18;;;;;;;;;;;;;;;21.01;26.45;98300.53;5046809;28;878;-79
2024/02/16 00:41:46;;;;;;;;;;;;;;;21.20;26.17;98302.59;5049007;28;1962;-78
2024/02/16 00:44:11;;;;;;;;;;;;;;;21.22;26.14;98300.13;5047602;28;719;-79
2024/02/16 00:46:37;;;;;;;;;;;;;;;21.28;25.89;98298.38;5049330;28;775;-79
2024/02/16 00:49:03;;;;;;;;;;;;;;;20.47;27.39;98300.75;5046240;28;815;-79
2024/02/16 00:51:29;;;;;;;;;;;;;;;20.75;26.64;98288.09;5047790;28;743;-78
2024/02/16 00:53:55;;;;;;;;;;;;;;;20.90;26.68;98288.63;5029632;28;720;-79
2024/02/16 00:56:20;;;;;;;;;;;;;;;21.06;26.41;98285.91;5047428;28;810;-79
2024/02/16 00:58:46;;;;;;;;;;;;;;;21.13;26.33;98299.88;5046662;28;805;-78
2024/02/16 01:01:12;;;;;;;;;;;;;;;21.12;26.25;98295.47;5048100;28;1966;-78
2024/02/16 01:03:38;;;;;;;;;;;;;;;21.18;26.46;98288.06;5045549;28;1083;-78
2024/02/16 01:06:05;;;;;;;;;;;;;;;21.28;26.11;98292.72;5048549;28;847;-79
2024/02/16 01:08:31;;;;;;;;;;;;;;;20.61;26.98;98302.50;5045145;28;810;-79
2024/02/16 01:10:56;;;;;;;;;;;;;;;20.95;26.59;98299.44;5048870;28;855;-79
2024/02/16 01:13:22;;;;;;;;;;;;;;;20.67;26.90;98297.94;5045717;28;1016;-78
2024/02/16 01:15:47;;;;;;;;;;;;;;;21.04;26.53;98294.03;5049269;28;850;-79
2024/02/16 01:18:13;;;;;;;;;;;;;;;20.87;26.71;98292.31;5046413;28;762;-78
2024/02/16 01:20:38;;;;;;;;;;;;;;;21.11;26.41;98293.88;5048087;28;1915;-78
2024/02/16 01:23:05;;;;;;;;;;;;;;;21.09;26.34;98287.88;5027830;28;976;-79
2024/02/16 01:25:31;;;;;;;;;;;;;;;21.22;26.15;98288.78;5030591;28;858;-78
2024/02/16 01:27:56;;;;;;;;;;;;;;;21.04;26.49;98283.50;5029336;28;1607;-79
2024/02/16 01:30:22;;;;;;;;;;;;;;;21.24;26.19;98294.84;5047455;28;863;-78
2024/02/16 01:32:47;;;;;;;;;;;;;;;20.83;26.70;98291.59;5045912;28;862;-79
2024/02/16 01:35:16;;;;;;;;;;;;;;;20.47;27.29;98295.88;5012498;28;862;-79
2024/02/16 01:37:41;;;;;;;;;;;;;;;20.84;26.72;98296.03;5046350;28;1083;-79
2024/02/16 01:40:13;;;;;;;;;;;;;;;20.78;26.94;98296.53;5005358;28;925;-79
2024/02/16 01:42:41;;;;;;;;;;;;;;;21.04;26.67;98296.84;4988710;28;1910;-79
2024/02/16 01:45:09;;;;;;;;;;;;;;;21.08;26.36;98294.72;4985017;28;927;-79
2024/02/16 01:47:34;;;;;;;;;;;;;;;21.10;26.41;98300.78;4954975;28;955;-79
2024/02/16 01:50:00;;;;;;;;;;;;;;;21.14;26.54;98286.53;4946715;29;942;-79
2024/02/16 01:52:26;;;;;;;;;;;;;;;21.18;26.19;98293.72;4932967;29;855;-79
2024/02/16 01:54:51;;;;;;;;;;;;;;;20.72;26.82;98295.41;4946436;29;860;-79
2024/02/16 01:57:17;;;;;;;;;;;;;;;20.30;27.42;98291.28;4910511;29;1096;-79
2024/02/16 01:59:42;;;;;;;;;;;;;;;20.72;27.28;98294.63;4893118;29;841;-79
2024/02/16 02:02:08;;;;;;;;;;;;;;;20.90;26.67;98294.31;4894756;29;1960;-78
2024/02/16 02:04:34;;;;;;;;;;;;;;;20.85;27.03;98289.16;4909054;29;878;-78
2024/02/16 02:06:59;;;;;;;;;;;;;;;20.96;26.66;98293.34;4894288;29;832;-79
2024/02/16 02:09:25;;;;;;;;;;;;;;;20.99;26.63;98297.38;4908869;29;1164;-78
2024/02/16 02:11:51;;;;;;;;;;;;;;;21.01;26.62;98297.72;4909216;29;1567;-79
2024/02/16 02:14:17;;;;;;;;;;;;;;;21.16;26.37;98301.06;4927848;29;1398;-79
2024/02/16 02:16:43;;;;;;;;;;;;;;;21.31;26.39;98303.19;4943053;29;895;-80
2024/02/16 02:19:08;;;;;;;;;;;;;;;21.17;26.28;98297.78;4930906;29;852;-79
2024/02/16 02:21:34;;;;;;;;;;;;;;;20.45;27.18;98297.50;4975233;28;1886;-79
2024/02/16 02:23:59;;;;;;;;;;;;;;;20.32;27.51;98293.69;4988129;28;1139;-79
2024/02/16 02:26:25;;;;;;;;;;;;;;;20.91;26.73;98295.88;4989488;28;1276;-79
2024/02/16 02:28:50;;;;;;;;;;;;;;;20.93;26.85;98293.41;5035202;28;1037;-79
2024/02/16 02:31:16;;;;;;;;;;;;;;;20.92;27.00;98294.66;5029298;28;1230;-78
2024/02/16 02:33:41;;;;;;;;;;;;;;;20.96;27.03;98295.38;5044213;28;774;-78
2024/02/16 02:36:07;;;;;;;;;;;;;;;20.96;26.60;98295.38;5011798;28;1165;-79
2024/02/16 02:38:33;;;;;;;;;;;;;;;21.03;26.84;98303.72;5043756;28;767;-78
2024/02/16 02:40:58;;;;;;;;;;;;;;;21.02;26.85;98285.16;5030279;28;1887;-79
2024/02/16 02:43:24;;;;;;;;;;;;;;;21.26;26.28;98298.03;5027343;28;1232;-79
2024/02/16 02:45:50;;;;;;;;;;;;;;;20.94;26.81;98298.66;5030166;28;1481;-79
2024/02/16 02:48:15;;;;;;;;;;;;;;;21.12;26.51;98298.28;5044880;28;877;-79
2024/02/16 02:50:41;;;;;;;;;;;;;;;21.07;26.81;98299.59;5045882;28;767;-79
2024/02/16 02:53:07;;;;;;;;;;;;;;;20.75;27.11;98299.41;5027819;28;1040;-78
2024/02/16 02:55:32;;;;;;;;;;;;;;;21.00;26.93;98308.22;5045277;28;834;-79
2024/02/16 02:57:58;;;;;;;;;;;;;;;20.89;27.13;98309.69;5045356;28;810;-79
2024/02/16 03:00:23;;;;;;;;;;;;;;;20.99;26.95;98309.47;5045865;28;881;-77
2024/02/16 03:02:49;;;;;;;;;;;;;;;21.13;26.57;98308.38;5044858;28;922;-79
2024/02/16 03:05:15;;;;;;;;;;;;;;;21.08;26.84;98306.84;5045911;28;939;-78
2024/02/16 03:07:40;;;;;;;;;;;;;;;21.17;26.59;98308.31;5028643;28;684;-78
2024/02/16 03:10:09;;;;;;;;;;;;;;;20.92;26.86;98309.59;5044217;28;818;-79
2024/02/16 03:12:34;;;;;;;;;;;;;;;20.11;27.98;98312.59;5028850;28;929;-79
2024/02/16 03:15:00;;;;;;;;;;;;;;;20.70;27.51;98309.19;5043703;28;881;-78
2024/02/16 03:17:25;;;;;;;;;;;;;;;20.98;27.00;98312.72;5029192;28;934;-78
2024/02/16 03:19:51;;;;;;;;;;;;;;;21.00;26.98;98316.72;5044058;28;1150;-79
2024/02/16 03:22:18;;;;;;;;;;;;;;;21.19;26.71;98317.97;5046405;28;1887;-79
2024/02/16 03:24:44;;;;;;;;;;;;;;;20.98;27.04;98318.38;5045318;28;913;-79
2024/02/16 03:27:10;;;;;;;;;;;;;;;21.23;26.67;98317.88;5046924;28;739;-78
2024/02/16 03:29:36;;;;;;;;;;;;;;;20.98;26.66;98312.72;5045157;28;1164;-79
2024/02/16 03:32:02;;;;;;;;;;;;;;;20.63;27.37;98320.66;5046820;28;727;-79
2024/02/16 03:34:27;;;;;;;;;;;;;;;20.98;27.03;98312.72;5045102;28;830;-78
2024/02/16 03:36:53;;;;;;;;;;;;;;;21.15;26.58;98322.91;5045749;28;779;-78
2024/02/16 03:39:20;;;;;;;;;;;;;;;21.17;26.65;98319.63;5042968;28;1132;-79
2024/02/16 03:41:48;;;;;;;;;;;;;;;21.01;26.90;98320.34;5044956;28;1891;-78
2024/02/16 03:44:14;;;;;;;;;;;;;;;21.14;26.78;98321.31;5043185;28;767;-79
2024/02/16 03:46:40;;;;;;;;;;;;;;;21.15;26.73;98322.91;5044643;28;1070;-79
2024/02/16 03:49:05;;;;;;;;;;;;;;;21.25;26.55;98326.75;5044812;28;837;-78
2024/02/16 03:51:31;;;;;;;;;;;;;;;20.68;27.33;98339.94;5045495;28;774;-79
2024/02/16 03:53:57;;;;;;;;;;;;;;;20.62;27.32;98335.97;5043469;28;790;-79
2024/02/16 03:56:22;;;;;;;;;;;;;;;21.08;26.68;98328.69;5028763;28;1134;-79
2024/02/16 03:58:48;;;;;;;;;;;;;;;21.22;26.79;98342.56;5044733;28;739;-79
2024/02/16 04:01:13;;;;;;;;;;;;;;;21.05;26.81;98338.06;5045385;28;1887;-78
2024/02/16 04:03:39;;;;;;;;;;;;;;;20.97;26.83;98339.41;5043588;28;798;-78
2024/02/16 04:06:04;;;;;;;;;;;;;;;21.20;26.72;98330.91;5046662;28;1190;-79
2024/02/16 04:08:30;;;;;;;;;;;;;;;21.16;26.88;98335.81;5008621;28;1253;-78
2024/02/16 04:10:56;;;;;;;;;;;;;;;21.23;26.63;98335.66;5012382;28;997;-78
2024/02/16 04:13:22;;;;;;;;;;;;;;;20.70;27.57;98336.69;4992593;28;982;-79
2024/02/16 04:15:47;;;;;;;;;;;;;;;20.63;27.19;98346.09;5028290;28;842;-78
2024/02/16 04:18:13;;;;;;;;;;;;;;;20.75;27.19;98351.13;5008333;28;847;-79
2024/02/16 04:20:41;;;;;;;;;;;;;;;21.05;26.73;98338.06;4995055;28;1956;-78
2024/02/16 04:23:06;;;;;;;;;;;;;;;20.85;27.12;98340.84;5025730;28;872;-78
2024/02/16 04:25:32;;;;;;;;;;;;;;;21.08;26.84;98351.31;5026769;28;833;-78
2024/02/16 04:27:57;;;;;;;;;;;;;;;21.22;26.62;98339.72;5025975;28;1140;-78
2024/02/16 04:30:23;;;;;;;;;;;;;;;21.14;26.75;98343.97;4993932;28;716;-79
2024/02/16 04:32:48;;;;;;;;;;;;;;;21.07;27.13;98349.72;5009958;28;1247;-78
2024/02/16 04:35:15;;;;;;;;;;;;;;;21.18;26.64;98344.66;5009934;28;1151;-79
2024/02/16 04:37:41;;;;;;;;;;;;;;;20.81;26.78;98338.06;5010349;28;890;-79
2024/02/16 04:40:06;;;;;;;;;;;;;;;20.81;27.32;98338.06;5001617;28;931;-78
2024/02/16 04:42:32;;;;;;;;;;;;;;;21.05;26.88;98344.50;4974519;28;1883;-79
2024/02/16 04:44:58;;;;;;;;;;;;;;;21.02;26.83;98347.41;4990001;28;815;-79
2024/02/16 04:47:26;;;;;;;;;;;;;;;21.18;26.78;98336.16;5007834;28;854;-79
2024/02/16 04:49:52;;;;;;;;;;;;;;;21.10;27.00;98343.22;4989334;28;974;-79
2024/02/16 04:52:17;;;;;;;;;;;;;;;21.16;26.70;98352.78;4974744;28;1150;-79
2024/02/16 04:54:43;;;;;;;;;;;;;;;21.21;26.89;98346.63;4973272;28;1117;-78
2024/02/16 04:57:09;;;;;;;;;;;;;;;21.11;27.06;98361.78;5007623;28;869;-79
2024/02/16 04:59:34;;;;;;;;;;;;;;;20.83;27.22;98357.47;4989537;28;1030;-79
2024/02/16 05:02:00;;;;;;;;;;;;;;;20.27;27.67;98366.41;4991523;28;1906;-78
2024/02/16 05:04:25;;;;;;;;;;;;;;;20.61;27.54;98368.31;5005712;28;984;-78
2024/02/16 05:06:52;;;;;;;;;;;;;;;20.86;27.45;98370.72;4990838;28;965;-78
2024/02/16 05:09:18;;;;;;;;;;;;;;;20.99;27.23;98382.22;5005484;28;894;-79
2024/02/16 05:11:44;;;;;;;;;;;;;;;21.17;26.71;98388.34;5038981;28;923;-79
2024/02/16 05:14:11;;;;;;;;;;;;;;;21.27;26.83;98387.34;5029945;28;984;-78
2024/02/16 05:16:37;;;;;;;;;;;;;;;21.27;26.54;98404.31;5047071;28;883;-78
2024/02/16 05:19:03;;;;;;;;;;;;;;;21.14;26.90;98400.53;5046842;28;931;-79
2024/02/16 05:21:28;;;;;;;;;;;;;;;20.45;27.77;98404.91;5014282;28;1883;-79
2024/02/16 05:23:55;;;;;;;;;;;;;;;20.92;27.02;98405.75;5008704;28;1188;-78
2024/02/16 05:26:20;;;;;;;;;;;;;;;21.01;27.15;98413.72;5009917;28;1007;-79
2024/02/16 05:28:47;;;;;;;;;;;;;;;21.04;26.95;98407.19;4977596;28;1193;-78
2024/02/16 05:31:17;;;;;;;;;;;;;;;21.12;27.02;98419.97;4970780;28;964;-79
2024/02/16 05:33:47;;;;;;;;;;;;;;;21.37;26.60;98418.75;4969521;28;1214;-78
2024/02/16 05:36:15;;;;;;;;;;;;;;;21.18;26.65;98429.56;4971306;28;1385;-79
2024/02/16 05:38:43;;;;;;;;;;;;;;;20.58;27.33;98425.75;4968325;28;1154;-78
2024/02/16 05:41:08;;;;;;;;;;;;;;;21.06;27.00;98435.84;4986986;28;1976;-79
2024/02/16 05:43:34;;;;;;;;;;;;;;;21.04;27.12;98424.16;4968494;28;1191;-79
2024/02/16 05:46:00;;;;;;;;;;;;;;;21.12;26.83;98430.50;4981452;28;1436;-78
2024/02/16 05:48:29;;;;;;;;;;;;;;;21.08;27.11;98424.88;4951612;28;1128;-78
2024/02/16 05:50:58;;;;;;;;;;;;;;;21.12;27.02;98430.50;4971292;28;998;-79
2024/02/16 05:53:25;;;;;;;;;;;;;;;21.16;26.84;98437.69;4951806;28;929;-80
2024/02/16 05:55:51;;;;;;;;;;;;;;;20.62;27.50;98437.78;5003825;28;1079;-79
2024/02/16 05:58:17;;;;;;;;;;;;;;;20.87;27.29;98439.41;5005074;28;920;-79
2024/02/16 06:00:43;;;;;;;;;;;;;;;21.01;27.10;98433.50;5006808;28;1902;-80
2024/02/16 06:03:08;;;;;;;;;;;;;;;20.92;27.39;98438.91;5005951;28;845;-79
2024/02/16 06:05:34;;;;;;;;;;;;;;;21.05;26.89;98442.75;5005243;28;887;-79
2024/02/16 06:08:00;;;;;;;;;;;;;;;21.18;26.75;98446.53;5005582;28;888;-79
2024/02/16 06:10:26;;;;;;;;;;;;;;;21.10;27.01;98445.06;4988665;28;1310;-80
2024/02/16 06:12:51;;;;;;;;;;;;;;;20.89;27.19;98454.72;5005288;28;1060;-80
2024/02/16 06:15:17;;;;;;;;;;;;;;;20.36;28.08;98447.03;4988379;28;1005;-79
2024/02/16 06:17:43;;;;;;;;;;;;;;;20.57;27.80;98457.25;4987176;28;1505;-80
2024/02/16 06:20:11;;;;;;;;;;;;;;;20.88;27.23;98466.44;4991915;28;1360;-79
2024/02/16 06:22:37;;;;;;;;;;;;;;;21.10;27.01;98462.06;4953750;28;1998;-80
2024/02/16 06:25:03;;;;;;;;;;;;;;;21.08;27.08;98461.66;4969295;28;1342;-79
2024/02/16 06:27:28;;;;;;;;;;;;;;;21.06;27.09;98456.44;4997323;28;1552;-81
2024/02/16 06:29:54;;;;;;;;;;;;;;;21.11;27.05;98463.66;4939633;28;1515;-80
2024/02/16 06:32:19;;;;;;;;;;;;;;;21.07;27.14;98468.56;4966399;28;1489;-80
2024/02/16 06:34:48;;;;;;;;;;;;;;;20.71;27.35;98469.13;4948474;29;1320;-80
2024/02/16 06:37:14;;;;;;;;;;;;;;;20.35;27.83;98466.00;4950536;29;1505;-79
2024/02/16 06:39:40;;;;;;;;;;;;;;;20.27;28.07;98468.16;4948688;29;1682;-80
2024/02/16 06:42:06;;;;;;;;;;;;;;;20.80;27.63;98466.56;4957107;28;1960;-80
2024/02/16 06:44:31;;;;;;;;;;;;;;;21.27;26.65;98460.94;4971031;28;1370;-80
2024/02/16 06:46:57;;;;;;;;;;;;;;;20.93;27.33;98465.97;4969481;28;1362;-80
2024/02/16 06:49:22;;;;;;;;;;;;;;;20.94;27.40;98462.72;4959754;28;1319;-80
2024/02/16 06:51:48;;;;;;;;;;;;;;;21.09;26.87;98466.13;4961076;28;1417;-80
2024/02/16 06:54:14;;;;;;;;;;;;;;;21.06;27.13;98462.09;4961982;28;1343;-80
2024/02/16 06:56:40;;;;;;;;;;;;;;;20.28;27.97;98474.59;4981021;28;1533;-80
2024/02/16 06:59:05;;;;;;;;;;;;;;;20.44;27.84;98471.16;4968039;28;1163;-79
2024/02/16 07:01:31;;;;;;;;;;;;;;;20.90;27.42;98464.81;5001830;28;1962;-80
2024/02/16 07:03:56;;;;;;;;;;;;;;;21.00;27.34;98468.69;5004836;28;1501;-80
2024/02/16 07:06:22;;;;;;;;;;;;;;;20.96;27.18;98473.59;5011964;28;1385;-80
2024/02/16 07:08:48;;;;;;;;;;;;;;;21.05;27.03;98476.69;4986863;28;1591;-80
2024/02/16 07:11:13;;;;;;;;;;;;;;;20.91;27.20;98477.72;4989103;28;1026;-80
2024/02/16 07:13:40;;;;;;;;;;;;;;;21.03;27.08;98482.75;5002734;28;1054;-80
2024/02/16 07:16:06;;;;;;;;;;;;;;;21.19;26.71;98482.13;4966936;28;1017;-80
2024/02/16 07:18:33;;;;;;;;;;;;;;;20.63;27.43;98492.31;4948162;28;2025;-80
2024/02/16 07:20:58;;;;;;;;;;;;;;;20.54;27.57;98496.47;4957727;28;1954;-80
2024/02/16 07:23:24;;;;;;;;;;;;;;;20.56;27.80;98493.19;4928667;29;1392;-80
2024/02/16 07:25:50;;;;;;;;;;;;;;;21.00;27.25;98497.78;4908680;29;1406;-79
2024/02/16 07:28:15;;;;;;;;;;;;;;;21.03;27.01;98498.94;4891568;29;1245;-80
2024/02/16 07:30:41;;;;;;;;;;;;;;;21.17;26.77;98501.53;4909070;29;1244;-80
2024/02/16 07:33:07;;;;;;;;;;;;;;;20.92;27.47;98501.16;4910944;29;1323;-80
2024/02/16 07:35:35;;;;;;;;;;;;;;;20.99;27.41;98506.72;4927767;29;1578;-81
2024/02/16 07:38:01;;;;;;;;;;;;;;;21.14;27.04;98496.75;4926735;29;1541;-81
2024/02/16 07:40:27;;;;;;;;;;;;;;;21.17;27.14;98501.53;4914861;29;1557;-80
2024/02/16 07:42:53;;;;;;;;;;;;;;;20.88;27.13;98506.06;4933598;29;1911;-81
2024/02/16 07:45:19;;;;;;;;;;;;;;;20.47;27.89;98505.06;4933569;29;1632;-80
2024/02/16 07:47:45;;;;;;;;;;;;;;;20.79;27.16;98513.06;4979213;28;1439;-81
2024/02/16 07:50:11;;;;;;;;;;;;;;;20.99;27.09;98512.38;4991587;28;941;-80
2024/02/16 07:52:37;;;;;;;;;;;;;;;21.05;27.10;98510.66;4975926;28;1969;-81
2024/02/16 07:55:03;;;;;;;;;;;;;;;21.12;26.87;98501.22;4990648;28;1111;-81
2024/02/16 07:57:30;;;;;;;;;;;;;;;20.97;27.14;98509.94;5004750;28;849;-80
2024/02/16 07:59:56;;;;;;;;;;;;;;;21.08;27.17;98515.44;5023594;28;860;-80
2024/02/16 08:02:21;;;;;;;;;;;;;;;21.32;26.81;98511.41;5009150;28;1914;-81
2024/02/16 08:04:47;;;;;;;;;;;;;;;21.22;26.71;98520.84;5024661;28;854;-81
2024/02/16 08:07:13;;;;;;;;;;;;;;;20.42;27.87;98513.19;5025383;28;962;-81
2024/02/16 08:09:39;;;;;;;;;;;;;;;20.42;28.01;98507.53;5024158;28;936;-81
2024/02/16 08:12:06;;;;;;;;;;;;;;;20.84;27.44;98516.66;5011703;28;1830;-81
2024/02/16 08:14:35;;;;;;;;;;;;;;;21.01;26.99;98521.22;5019548;28;1457;-81
2024/02/16 08:17:00;;;;;;;;;;;;;;;21.01;27.16;98515.56;5017032;28;1883;-81
2024/02/16 08:19:31;;;;;;;;;;;;;;;20.83;27.72;98515.03;5013460;28;1681;-80
2024/02/16 08:21:57;;;;;;;;;;;;;;;21.13;27.21;98506.44;5016781;28;1895;-80
2024/02/16 08:24:22;;;;;;;;;;;;;;;21.08;26.99;98510.56;4973683;28;2036;-80
2024/02/16 08:26:48;;;;;;;;;;;;;;;20.88;27.30;98523.03;5018164;28;1644;-81
2024/02/16 08:29:13;;;;;;;;;;;;;;;20.84;27.33;98517.44;5015852;28;1660;-81
2024/02/16 08:31:39;;;;;;;;;;;;;;;20.10;28.40;98516.41;5019596;28;1510;-81
2024/02/16 08:34:07;;;;;;;;;;;;;;;20.70;27.84;98526.13;4995016;28;1531;-80
2024/02/16 08:36:33;;;;;;;;;;;;;;;20.84;27.47;98525.13;4959215;28;992;-80
2024/02/16 08:38:59;;;;;;;;;;;;;;;20.91;27.44;98527.84;5004338;28;1318;-80
2024/02/16 08:41:25;;;;;;;;;;;;;;;20.99;27.06;98523.69;4991058;28;1956;-81
2024/02/16 08:43:50;;;;;;;;;;;;;;;21.18;27.17;98527.81;4973366;28;1298;-80
2024/02/16 08:46:16;;;;;;;;;;;;;;;21.10;27.14;98524.31;4991795;28;922;-80
2024/02/16 08:48:44;;;;;;;;;;;;;;;21.10;27.17;98529.16;5005411;28;1253;-81
2024/02/16 08:51:09;;;;;;;;;;;;;;;20.62;27.73;98528.25;4970651;28;1064;-80
2024/02/16 08:53:35;;;;;;;;;;;;;;;20.32;27.78;98537.53;4985310;28;913;-80
2024/02/16 08:56:00;;;;;;;;;;;;;;;21.02;27.31;98534.91;4971823;28;1379;-81
2024/02/16 08:58:26;;;;;;;;;;;;;;;21.05;27.13;98539.72;4969247;28;1020;-80
2024/02/16 09:00:52;;;;;;;;;;;;;;;21.13;27.16;98539.59;4988032;28;1966;-80
2024/02/16 09:03:17;;;;;;;;;;;;;;;21.04;27.05;98548.66;4954327;29;1197;-81
2024/02/16 09:05:46;;;;;;;;;;;;;;;21.07;27.30;98556.28;4951723;29;887;-80
2024/02/16 09:08:11;;;;;;;;;;;;;;;21.17;26.90;98558.13;4966904;29;966;-81
2024/02/16 09:10:37;;;;;;;;;;;;;;;21.06;26.98;98558.31;4950734;28;995;-80
2024/02/16 09:13:02;;;;;;;;;;;;;;;21.11;27.07;98553.41;4968991;28;1172;-80
2024/02/16 09:15:28;;;;;;;;;;;;;;;20.85;27.22;98557.84;4948099;29;979;-81
2024/02/16 09:17:54;;;;;;;;;;;;;;;20.35;27.84;98555.66;4948021;29;993;-80
2024/02/16 09:20:22;;;;;;;;;;;;;;;20.81;27.51;98549.41;4899815;29;1132;-80
2024/02/16 09:22:48;;;;;;;;;;;;;;;21.03;26.98;98552.69;4932228;29;1880;-80
2024/02/16 09:25:14;;;;;;;;;;;;;;;21.04;27.17;98549.47;4931098;29;956;-80
2024/02/16 09:27:41;;;;;;;;;;;;;;;21.05;27.08;98556.72;4911794;29;1267;-80
2024/02/16 09:30:07;;;;;;;;;;;;;;;21.06;27.31;98551.84;4912178;29;937;-80
2024/02/16 09:32:33;;;;;;;;;;;;;;;20.99;27.14;98551.97;4913560;29;980;-80
2024/02/16 09:34:58;;;;;;;;;;;;;;;20.97;27.50;98557.25;4924134;29;1465;-80
2024/02/16 09:37:24;;;;;;;;;;;;;;;21.00;27.47;98542.25;4900517;29;1445;-80
2024/02/16 09:39:49;;;;;;;;;;;;;;;20.89;27.65;98552.94;4930961;29;1589;-80
2024/02/16 09:42:16;;;;;;;;;;;;;;;20.74;27.20;98550.31;4948171;29;1944;-80
2024/02/16 09:44:41;;;;;;;;;;;;;;;20.11;28.72;98549.91;4930998;29;1613;-81
2024/02/16 09:47:10;;;;;;;;;;;;;;;19.75;28.94;98553.13;4932137;29;1642;-81
2024/02/16 09:49:36;;;;;;;;;;;;;;;20.87;27.38;98546.88;4930324;29;885;-81
2024/02/16 09:52:03;;;;;;;;;;;;;;;20.98;27.32;98550.34;4916002;29;1109;-81
2024/02/16 09:54:29;;;;;;;;;;;;;;;20.87;27.56;98542.03;4930448;29;1248;-81
2024/02/16 09:56:56;;;;;;;;;;;;;;;20.94;27.55;98546.78;4931959;29;1267;-81
2024/02/16 09:59:22;;;;;;;;;;;;;;;21.05;27.16;98548.22;4946756;29;1263;-81
2024/02/16 10:01:47;;;;;;;;;;;;;;;21.10;27.05;98552.59;4948323;29;1883;-81
2024/02/16 10:04:13;;;;;;;;;;;;;;;21.07;27.08;98553.44;4949345;29;1004;-81
2024/02/16 10:06:48;;;;;;;;;;;;;;;20.43;27.82;98538.19;4951380;29;992;-81
2024/02/16 10:09:22;;;;;;;;;;;;;;;20.86;27.46;98536.81;4950216;29;1050;-81
2024/02/16 10:11:47;;;;;;;;;;;;;;;20.87;27.72;98549.72;4951374;28;959;-81
2024/02/16 10:14:13;;;;;;;;;;;;;;;21.09;27.29;98545.34;4965775;28;864;-81
2024/02/16 10:16:38;;;;;;;;;;;;;;;20.91;27.55;98536.31;4967379;28;953;-81
2024/02/16 10:19:05;;;;;;;;;;;;;;;20.68;28.11;98531.44;4965369;28;901;-81
2024/02/16 10:21:30;;;;;;;;;;;;;;;20.99;27.54;98540.66;4966645;28;1887;-80
2024/02/16 10:24:07;;;;;;;;;;;;;;;21.09;27.23;98536.84;5000043;28;1551;-81
2024/02/16 10:26:37;;;;;;;;;;;;;;;20.59;27.68;98533.97;5007427;28;917;-81
2024/02/16 10:29:03;;;;;;;;;;;;;;;20.22;28.57;98538.47;5003930;28;1059;-81
2024/02/16 10:31:29;;;;;;;;;;;;;;;20.74;27.94;98535.38;4989629;28;1131;-81
2024/02/16 10:34:05;;;;;;;;;;;;;;;20.95;27.39;98540.69;5017557;28;1567;-81
2024/02/16 10:36:33;;;;;;;;;;;;;;;20.91;27.64;98539.94;5014819;28;1337;-80
2024/02/16 10:38:59;;;;;;;;;;;;;;;21.04;27.37;98537.34;5018365;28;1320;-81
2024/02/16 10:41:31;;;;;;;;;;;;;;;21.16;27.21;98533.91;5013962;28;1969;-81
2024/02/16 10:43:56;;;;;;;;;;;;;;;20.99;27.37;98523.69;5007420;28;1531;-81
2024/02/16 10:46:22;;;;;;;;;;;;;;;20.34;28.05;98535.06;5017188;28;1612;-81
2024/02/16 10:48:48;;;;;;;;;;;;;;;20.52;28.05;98540.50;5002357;28;1563;-81
2024/02/16 10:51:14;;;;;;;;;;;;;;;20.89;27.78;98533.13;5014948;28;1544;-81
2024/02/16 10:53:39;;;;;;;;;;;;;;;21.00;27.37;98536.59;4981085;28;1591;-80
2024/02/16 10:56:06;;;;;;;;;;;;;;;21.10;27.16;98535.63;4990997;28;1543;-81
2024/02/16 10:58:33;;;;;;;;;;;;;;;21.11;27.37;98531.56;5018384;28;1373;-81
2024/02/16 11:01:07;;;;;;;;;;;;;;;20.95;27.56;98525.75;5009482;28;1875;-81
2024/02/16 11:03:32;;;;;;;;;;;;;;;20.94;27.77;98532.66;5016162;28;1293;-81
2024/02/16 11:05:59;;;;;;;;;;;;;;;20.92;27.56;98535.09;5019859;28;1264;-81
2024/02/16 11:08:28;;;;;;;;;;;;;;;21.17;27.19;98532.66;5017465;28;1513;-82
2024/02/16 11:11:00;;;;;;;;;;;;;;;21.04;27.08;98537.34;5019282;28;1478;-81
2024/02/16 11:13:26;;;;;;;;;;;;;;;20.62;28.04;98539.56;5007906;28;1288;-80
2024/02/16 11:16:02;;;;;;;;;;;;;;;20.85;27.46;98529.56;5015952;28;1332;-81
2024/02/16 11:18:31;;;;;;;;;;;;;;;21.03;27.40;98541.38;5021527;28;1543;-81
2024/02/16 11:21:00;;;;;;;;;;;;;;;21.11;27.34;98542.09;4981077;28;1887;-81
2024/02/16 11:23:31;;;;;;;;;;;;;;;21.06;27.36;98535.66;4965528;28;1358;-81
2024/02/16 11:26:03;;;;;;;;;;;;;;;20.88;27.62;98537.16;4944231;29;1323;-81
2024/02/16 11:28:31;;;;;;;;;;;;;;;21.04;27.36;98537.34;4952059;28;1113;-81
2024/02/16 11:30:56;;;;;;;;;;;;;;;21.05;27.17;98539.72;4954788;29;953;-80
2024/02/16 11:33:22;;;;;;;;;;;;;;;20.58;27.90;98538.81;4951678;29;980;-81
2024/02/16 11:35:57;;;;;;;;;;;;;;;20.30;28.40;98529.47;4954640;28;1065;-81
2024/02/16 11:38:23;;;;;;;;;;;;;;;20.92;27.43;98535.09;4951410;28;985;-80
2024/02/16 11:40:54;;;;;;;;;;;;;;;20.92;27.50;98518.13;4970012;28;1879;-81
2024/02/16 11:43:23;;;;;;;;;;;;;;;21.04;27.23;98531.69;4951586;29;1000;-81
2024/02/16 11:45:48;;;;;;;;;;;;;;;20.88;27.68;98528.69;4953571;28;1124;-80
2024/02/16 11:48:18;;;;;;;;;;;;;;;21.14;27.17;98518.56;4952035;29;958;-81
2024/02/16 11:50:44;;;;;;;;;;;;;;;20.99;27.34;98518.03;4955195;28;1021;-81
2024/02/16 11:53:09;;;;;;;;;;;;;;;21.09;27.12;98517.06;4991719;28;1075;-80
2024/02/16 11:55:35;;;;;;;;;;;;;;;20.41;28.37;98515.19;5010187;28;974;-80
2024/02/16 11:58:01;;;;;;;;;;;;;;;20.13;28.74;98502.25;5007634;28;981;-80
2024/02/16 12:00:26;;;;;;;;;;;;;;;20.81;27.67;98513.44;5007740;28;955;-80
2024/02/16 12:02:58;;;;;;;;;;;;;;;21.12;27.49;98510.50;5009509;28;1978;-81
2024/02/16 12:05:24;;;;;;;;;;;;;;;21.05;27.29;98516.31;4991575;28;1332;-80
2024/02/16 12:07:49;;;;;;;;;;;;;;;21.04;27.59;98526.03;5009236;28;919;-81
2024/02/16 12:10:15;;;;;;;;;;;;;;;21.11;27.09;98520.25;5009003;28;915;-81
2024/02/16 12:12:42;;;;;;;;;;;;;;;21.16;27.35;98518.97;5010937;28;926;-81
2024/02/16 12:15:07;;;;;;;;;;;;;;;20.78;27.75;98519.94;5008361;28;910;-81
2024/02/16 12:17:33;;;;;;;;;;;;;;;20.58;27.92;98521.88;4999413;28;1234;-81
2024/02/16 12:19:59;;;;;;;;;;;;;;;20.73;27.86;98520.44;5014494;28;1629;-73
2024/02/16 12:22:25;;;;;;;;;;;;;;;21.03;27.69;98524.41;4993814;28;1989;-73
2024/02/16 12:24:51;;;;;;;;;;;;;;;21.37;27.17;98524.28;5005945;28;1757;-75
2024/02/16 12:27:16;;;;;;;;;;;;;;;21.08;27.48;98521.09;5004101;28;1623;-76
2024/02/16 12:29:42;;;;;;;;;;;;;;;20.91;27.67;98522.19;5005132;28;1853;-71
2024/02/16 12:32:09;;;;;;;;;;;;;;;21.29;27.33;98520.72;5008357;28;1748;-74
2024/02/16 12:34:37;;;;;;;;;;;;;;;21.45;27.48;98516.44;5007137;28;1497;-75
2024/02/16 12:37:04;;;;;;;;;;;;;;;21.23;27.83;98530.94;5008258;28;1507;-75
2024/02/16 12:39:30;;;;;;;;;;;;;;;21.52;27.27;98519.97;5003517;28;2208;-76
2024/02/16 12:41:55;;;;;;;;;;;;;;;21.17;28.15;98523.38;5021626;28;1902;-82
2024/02/16 12:44:21;;;;;;;;;;;;;;;20.79;28.67;98529.22;4993588;28;1354;-81
2024/02/16 12:46:47;;;;;;;;;;;;;;;20.89;28.33;98530.31;5001539;28;1631;-81
2024/02/16 12:49:12;;;;;;;;;;;;;;;20.81;28.28;98523.94;4997378;28;1557;-82
2024/02/16 12:51:38;;;;;;;;;;;;;;;21.06;28.13;98523.56;4994410;28;1295;-82
2024/02/16 12:54:04;;;;;;;;;;;;;;;20.84;28.21;98527.97;5003157;28;1235;-80